Time;durP1;ratioP1;P1;durP2;ratioP2;P2;SDS_P1;SDS_P2;PMS_P1;PMS_P2;Temp;Humidity;BMP_temperature;BMP_pressure;BME280_temperature;BME280_humidity;BME280_pressure;Samples;Min_cycle;Max_cycle;Signal;HPM_P1;HPM_P2
2023/07/29 00:01:45;;;;;;;0.10;0.10;;;18.40;99.90;;;;;;5044090;28;20032;-80
2023/07/29 00:04:12;;;;;;;0.20;0.20;;;18.50;99.90;;;;;;5061309;28;20510;-80
2023/07/29 00:06:38;;;;;;;0.10;0.10;;;18.90;99.90;;;;;;5061076;28;20028;-83
2023/07/29 00:09:04;;;;;;;1.00;0.70;;;18.80;99.90;;;;;;5059555;28;20078;-78
2023/07/29 00:11:32;;;;;;;0.10;0.10;;;;;;;;;;5041501;28;20056;-79
2023/07/29 00:13:58;;;;;;;0.10;0.10;;;18.30;99.90;;;;;;5058880;28;20032;-80
2023/07/29 00:16:23;;;;;;;0.20;0.20;;;18.00;99.90;;;;;;5059301;28;20028;-86
2023/07/29 00:18:51;;;;;;;0.10;0.10;;;18.40;99.90;;;;;;5059627;28;20017;-81
2023/07/29 00:21:17;;;;;;;1.73;1.65;;;18.20;99.90;;;;;;5059713;28;20063;-80
2023/07/29 00:23:43;;;;;;;0.10;0.10;;;18.60;99.90;;;;;;5059308;28;20017;-80
2023/07/29 00:26:09;;;;;;;0.20;0.20;;;18.70;99.90;;;;;;5059334;28;20028;-79
2023/07/29 00:28:35;;;;;;;0.15;0.15;;;18.00;99.90;;;;;;5041914;28;20020;-80
2023/07/29 00:31:02;;;;;;;0.10;0.10;;;17.90;99.90;;;;;;5042091;28;20028;-78
2023/07/29 00:33:28;;;;;;;0.10;0.10;;;17.60;99.90;;;;;;5062155;28;20013;-81
2023/07/29 00:35:54;;;;;;;0.10;0.10;;;17.90;99.90;;;;;;5061360;28;20021;-79
2023/07/29 00:38:20;;;;;;;0.17;0.17;;;18.20;99.90;;;;;;5060846;28;20074;-79
2023/07/29 00:40:46;;;;;;;0.15;0.15;;;;;;;;;;5041907;28;20583;-79
2023/07/29 00:43:12;;;;;;;0.73;0.73;;;18.20;99.90;;;;;;5059905;28;20020;-79
2023/07/29 00:45:38;;;;;;;0.17;0.17;;;18.20;99.90;;;;;;5059560;28;20030;-78
2023/07/29 00:48:05;;;;;;;0.10;0.10;;;;;;;;;;5041356;28;20025;-79
2023/07/29 00:50:32;;;;;;;0.10;0.10;;;18.00;99.90;;;;;;5041312;28;20028;-79
2023/07/29 00:53:03;;;;;;;0.10;0.10;;;17.60;99.90;;;;;;5059046;28;20017;-87
2023/07/29 00:55:29;;;;;;;0.10;0.10;;;18.10;99.90;;;;;;5058505;28;20582;-79
2023/07/29 00:57:58;;;;;;;0.10;0.10;;;17.50;99.90;;;;;;5058521;28;20047;-82
2023/07/29 01:00:24;;;;;;;0.10;0.10;;;18.60;99.90;;;;;;5040072;28;20023;-78
2023/07/29 01:02:52;;;;;;;0.10;0.10;;;18.00;99.90;;;;;;5058648;28;20020;-79
2023/07/29 01:05:18;;;;;;;0.10;0.10;;;16.90;99.90;;;;;;5058330;28;20024;-77
2023/07/29 01:08:07;;;;;;;0.13;0.13;;;18.50;99.90;;;;;;5058020;28;20029;-81
2023/07/29 01:10:44;;;;;;;0.20;0.20;;;16.10;99.90;;;;;;5058792;28;20020;-86
2023/07/29 01:13:39;;;;;;;0.10;0.10;;;18.70;99.90;;;;;;5058690;28;20090;-84
2023/07/29 01:16:25;;;;;;;0.10;0.10;;;18.80;99.90;;;;;;5058806;28;20031;-87
2023/07/29 01:18:55;;;;;;;0.30;0.30;;;19.00;99.90;;;;;;5058150;28;20157;-79
2023/07/29 01:21:22;;;;;;;5.38;3.28;;;18.70;99.90;;;;;;5041034;28;20025;-79
2023/07/29 01:23:47;;;;;;;0.50;0.50;;;21.10;99.90;;;;;;5058931;28;20031;-85
2023/07/29 01:26:16;;;;;;;0.13;0.13;;;20.00;99.90;;;;;;5058710;28;20694;-84
2023/07/29 01:28:45;;;;;;;0.10;0.10;;;20.20;99.90;;;;;;5058735;28;20013;-84
2023/07/29 01:31:19;;;;;;;0.10;0.10;;;19.10;99.90;;;;;;5058691;28;20012;-87
2023/07/29 01:34:17;;;;;;;0.10;0.10;;;21.60;99.90;;;;;;5058812;28;20009;-87
2023/07/29 01:36:45;;;;;;;0.10;0.10;;;18.70;99.90;;;;;;5040865;28;20033;-87
2023/07/29 01:39:12;;;;;;;0.25;0.25;;;18.60;99.90;;;;;;5058832;28;20033;-87
2023/07/29 01:41:38;;;;;;;0.28;0.28;;;18.30;99.90;;;;;;5058747;28;20035;-87
2023/07/29 01:44:06;;;;;;;0.10;0.10;;;18.40;99.90;;;;;;5057951;28;20016;-86
2023/07/29 01:46:34;;;;;;;0.17;0.17;;;17.90;99.90;;;;;;5059075;28;20592;-83
2023/07/29 01:49:00;;;;;;;0.10;0.10;;;17.80;99.90;;;;;;5061034;28;20017;-80
2023/07/29 01:51:29;;;;;;;0.10;0.10;;;15.50;99.90;;;;;;5041456;28;20031;-86
2023/07/29 01:53:59;;;;;;;0.10;0.10;;;17.60;99.90;;;;;;5043438;28;20082;-82
2023/07/29 01:56:25;;;;;;;0.17;0.17;;;17.70;99.90;;;;;;5062700;28;20029;-78
2023/07/29 01:58:51;;;;;;;0.10;0.10;;;18.20;99.90;;;;;;5041163;28;20060;-82
2023/07/29 02:01:17;;;;;;;0.63;0.63;;;17.80;99.90;;;;;;5060955;28;20156;-78
2023/07/29 02:03:45;;;;;;;0.52;0.52;;;17.60;99.90;;;;;;5051603;28;20023;-80
2023/07/29 02:06:13;;;;;;;0.10;0.10;;;17.20;99.90;;;;;;5048032;28;20024;-89
2023/07/29 02:08:41;;;;;;;0.25;0.25;;;16.90;99.90;;;;;;5069542;28;20021;-83
2023/07/29 02:11:10;;;;;;;0.10;0.10;;;16.40;99.90;;;;;;5068966;28;20659;-78
2023/07/29 02:13:36;;;;;;;0.10;0.10;;;17.20;99.90;;;;;;5048921;28;20025;-78
2023/07/29 02:16:01;;;;;;;0.10;0.10;;;17.20;99.90;;;;;;5048692;28;20391;-82
2023/07/29 02:18:27;;;;;;;0.10;0.10;;;17.70;99.90;;;;;;5070177;28;20031;-79
2023/07/29 02:21:02;;;;;;;0.10;0.10;;;17.40;99.90;;;;;;5049485;28;20021;-87
2023/07/29 02:23:27;;;;;;;0.30;0.30;;;17.30;99.90;;;;;;5065467;28;20016;-85
2023/07/29 02:26:02;;;;;;;0.73;0.73;;;16.90;99.90;;;;;;5064198;28;20531;-78
2023/07/29 02:28:33;;;;;;;0.10;0.10;;;20.90;99.90;;;;;;5063448;28;20446;-80
2023/07/29 02:31:21;;;;;;;0.10;0.10;;;17.50;99.90;;;;;;5061663;28;20044;-85
2023/07/29 02:33:50;;;;;;;0.10;0.10;;;18.00;99.90;;;;;;5043406;28;20055;-76
2023/07/29 02:36:16;;;;;;;0.10;0.10;;;18.70;99.90;;;;;;5060178;28;20736;-80
2023/07/29 02:38:43;;;;;;;0.10;0.10;;;17.80;99.90;;;;;;5060103;28;20036;-80
2023/07/29 02:41:09;;;;;;;0.15;0.15;;;17.40;99.90;;;;;;5060712;28;20033;-82
2023/07/29 02:43:39;;;;;;;0.10;0.10;;;14.00;99.90;;;;;;5042147;28;20094;-76
2023/07/29 02:46:04;;;;;;;0.17;0.17;;;17.00;99.90;;;;;;5060319;28;20025;-77
2023/07/29 02:48:30;;;;;;;0.10;0.10;;;16.70;99.90;;;;;;5060192;28;20662;-79
2023/07/29 02:50:59;;;;;;;0.10;0.10;;;16.60;99.90;;;;;;5060389;28;20032;-79
2023/07/29 02:53:25;;;;;;;0.20;0.20;;;16.50;99.90;;;;;;5060262;28;20681;-84
2023/07/29 02:55:51;;;;;;;0.10;0.10;;;;;;;;;;5060508;28;20028;-82
2023/07/29 02:58:17;;;;;;;1.00;1.00;;;16.90;99.90;;;;;;5062046;28;20610;-83
2023/07/29 03:00:43;;;;;;;0.25;0.25;;;17.20;99.90;;;;;;5061555;28;20021;-90
2023/07/29 03:03:20;;;;;;;0.10;0.10;;;17.30;99.90;;;;;;5042990;28;20059;-83
2023/07/29 03:05:46;;;;;;;0.10;0.10;;;16.90;99.90;;;;;;5061591;28;20036;-86
2023/07/29 03:08:13;;;;;;;0.30;0.30;;;16.60;99.90;;;;;;5041801;28;20236;-84
2023/07/29 03:10:42;;;;;;;0.20;0.20;;;16.20;99.90;;;;;;5042710;28;20029;-81
2023/07/29 03:13:08;;;;;;;0.10;0.10;;;15.90;99.90;;;;;;5059943;28;20024;-78
2023/07/29 03:15:34;;;;;;;0.15;0.15;;;15.90;99.90;;;;;;5041918;28;20078;-86
2023/07/29 03:18:00;;;;;;;0.10;0.10;;;15.80;99.90;;;;;;5060411;28;20024;-89
2023/07/29 03:20:26;;;;;;;0.10;0.10;;;15.80;99.90;;;;;;5060501;28;20580;-87
2023/07/29 03:22:52;;;;;;;0.10;0.10;;;;;;;;;;5059240;28;20709;-86
2023/07/29 03:25:18;;;;;;;0.10;0.10;;;15.80;99.90;;;;;;5060051;28;20023;-85
2023/07/29 03:27:44;;;;;;;2.67;2.50;;;;;;;;;;5059900;28;20594;-85
2023/07/29 03:30:13;;;;;;;0.10;0.10;;;16.50;99.90;;;;;;5059841;28;20678;-82
2023/07/29 03:32:46;;;;;;;0.10;0.10;;;16.40;99.90;;;;;;5060304;28;20024;-86
2023/07/29 03:35:11;;;;;;;0.10;0.10;;;15.40;99.90;;;;;;5060431;28;20020;-83
2023/07/29 03:37:37;;;;;;;0.10;0.10;;;17.40;99.90;;;;;;5041827;28;20093;-79
2023/07/29 03:40:04;;;;;;;0.10;0.10;;;14.50;99.90;;;;;;5059865;28;20682;-81
2023/07/29 03:42:29;;;;;;;0.10;0.10;;;18.90;99.90;;;;;;5059666;28;20013;-80
2023/07/29 03:44:55;;;;;;;0.10;0.10;;;17.70;99.90;;;;;;5060174;28;20016;-79
2023/07/29 03:47:21;;;;;;;0.52;0.52;;;19.00;99.90;;;;;;5059285;28;20013;-85
2023/07/29 03:49:47;;;;;;;0.10;0.10;;;18.50;99.90;;;;;;5059666;28;20032;-84
2023/07/29 03:52:13;;;;;;;0.10;0.10;;;18.10;99.90;;;;;;5059014;28;20563;-86
2023/07/29 03:54:38;;;;;;;0.55;0.55;;;17.90;99.90;;;;;;5041216;28;20029;-80
2023/07/29 03:57:04;;;;;;;0.10;0.10;;;18.20;99.90;;;;;;5058727;28;20048;-79
2023/07/29 03:59:30;;;;;;;0.57;0.57;;;18.60;99.90;;;;;;5040585;28;20597;-86
2023/07/29 04:01:56;;;;;;;0.10;0.10;;;19.30;99.90;;;;;;5040651;28;20040;-85
2023/07/29 04:04:22;;;;;;;0.20;0.20;;;18.70;99.90;;;;;;5058945;28;20679;-86
2023/07/29 04:06:47;;;;;;;0.15;0.15;;;18.80;99.90;;;;;;5058853;28;20570;-86
2023/07/29 04:09:13;;;;;;;0.10;0.10;;;18.40;99.90;;;;;;5059267;28;20020;-86
2023/07/29 04:11:39;;;;;;;0.10;0.10;;;18.70;99.90;;;;;;5040790;28;20027;-80
2023/07/29 04:14:05;;;;;;;0.10;0.10;;;18.70;99.90;;;;;;5058759;28;20052;-81
2023/07/29 04:16:31;;;;;;;0.10;0.10;;;18.60;99.90;;;;;;5058720;28;20033;-83
2023/07/29 04:18:56;;;;;;;0.10;0.10;;;17.90;99.90;;;;;;5058510;28;20017;-85
2023/07/29 04:21:22;;;;;;;0.10;0.10;;;17.40;99.90;;;;;;5058606;28;20108;-82
2023/07/29 04:23:48;;;;;;;0.10;0.10;;;17.40;99.90;;;;;;5061081;28;20081;-81
2023/07/29 04:26:14;;;;;;;0.10;0.10;;;16.80;99.90;;;;;;5064974;28;20062;-85
2023/07/29 04:28:39;;;;;;;0.10;0.10;;;17.70;99.90;;;;;;5064703;28;20576;-86
2023/07/29 04:31:05;;;;;;;0.00;0.00;;;18.00;99.90;;;;;;5065654;28;20021;-84
2023/07/29 04:33:31;;;;;;;0.20;0.20;;;18.00;99.90;;;;;;5061244;28;20055;-86
2023/07/29 04:35:57;;;;;;;0.10;0.10;;;18.50;99.90;;;;;;5061731;28;20032;-83
2023/07/29 04:38:27;;;;;;;0.20;0.20;;;18.70;99.90;;;;;;5061214;28;20016;-83
2023/07/29 04:40:53;;;;;;;0.10;0.10;;;19.00;99.90;;;;;;5059359;28;20016;-86
2023/07/29 04:43:19;;;;;;;0.10;0.10;;;19.40;99.90;;;;;;5040238;28;20024;-83
2023/07/29 04:45:45;;;;;;;0.52;0.52;;;19.80;99.90;;;;;;5058758;28;20016;-81
2023/07/29 04:48:11;;;;;;;0.30;0.30;;;20.10;99.90;;;;;;5058018;28;20019;-83
2023/07/29 04:50:36;;;;;;;0.10;0.10;;;20.30;99.90;;;;;;5058092;28;20111;-80
2023/07/29 04:53:02;;;;;;;0.10;0.10;;;20.40;99.90;;;;;;5058335;28;20041;-85
2023/07/29 04:55:28;;;;;;;0.25;0.25;;;20.10;99.90;;;;;;5058129;28;20532;-79
2023/07/29 04:57:54;;;;;;;0.10;0.10;;;20.20;99.90;;;;;;5057398;28;20196;-79
2023/07/29 05:00:19;;;;;;;0.10;0.10;;;20.10;99.90;;;;;;5039683;28;20016;-79
2023/07/29 05:02:45;;;;;;;0.10;0.10;;;20.10;99.90;;;;;;5057690;28;20021;-84
2023/07/29 05:05:11;;;;;;;0.10;0.10;;;20.40;99.90;;;;;;5057245;28;20069;-86
2023/07/29 05:07:37;;;;;;;0.10;0.10;;;20.30;99.90;;;;;;5039748;28;20206;-80
2023/07/29 05:10:03;;;;;;;0.10;0.10;;;20.40;99.90;;;;;;5057409;28;20028;-80
2023/07/29 05:12:29;;;;;;;0.10;0.10;;;20.30;99.90;;;;;;5057930;28;20573;-82
2023/07/29 05:14:55;;;;;;;0.00;0.00;;;19.60;99.90;;;;;;5057421;28;20009;-79
2023/07/29 05:17:22;;;;;;;0.10;0.10;;;19.10;99.90;;;;;;5057631;28;20570;-85
2023/07/29 05:19:47;;;;;;;2.15;2.05;;;19.00;99.90;;;;;;5057253;28;20039;-83
2023/07/29 05:22:13;;;;;;;0.10;0.10;;;18.70;99.90;;;;;;5058001;28;20406;-84
2023/07/29 05:24:39;;;;;;;0.10;0.10;;;19.10;99.90;;;;;;5057714;28;20025;-79
2023/07/29 05:27:05;;;;;;;0.10;0.10;;;19.30;99.90;;;;;;5057824;28;20031;-81
2023/07/29 05:29:39;;;;;;;0.30;0.30;;;19.70;99.90;;;;;;5057723;28;20020;-80
2023/07/29 05:32:05;;;;;;;0.10;0.10;;;19.80;99.90;;;;;;5039859;28;20052;-79
2023/07/29 05:34:33;;;;;;;0.10;0.10;;;19.80;99.90;;;;;;5041382;28;20055;-77
2023/07/29 05:36:59;;;;;;;1.13;1.13;;;19.70;99.90;;;;;;5041362;28;20082;-79
2023/07/29 05:39:25;;;;;;;0.10;0.10;;;20.30;99.90;;;;;;5042145;28;20036;-80
2023/07/29 05:41:51;;;;;;;2.05;1.92;;;;;;;;;;5042544;28;20031;-79
2023/07/29 05:44:20;;;;;;;0.10;0.10;;;20.90;99.90;;;;;;5042282;28;20028;-80
2023/07/29 05:46:48;;;;;;;0.10;0.10;;;21.30;99.90;;;;;;5041948;28;20020;-78
2023/07/29 05:49:24;;;;;;;0.10;0.10;;;20.80;99.90;;;;;;5046104;28;20120;-78
2023/07/29 05:51:51;;;;;;;0.10;0.10;;;20.90;99.90;;;;;;5063414;28;20028;-78
2023/07/29 05:54:21;;;;;;;0.20;0.20;;;21.00;99.90;;;;;;5062635;28;20688;-78
2023/07/29 05:56:47;;;;;;;0.10;0.10;;;21.10;99.90;;;;;;5044373;28;20052;-85
2023/07/29 05:59:16;;;;;;;0.10;0.10;;;20.40;99.90;;;;;;5062605;28;20016;-88
2023/07/29 06:01:44;;;;;;;3.10;2.92;;;21.50;99.90;;;;;;5062637;28;20063;-88
2023/07/29 06:04:13;;;;;;;0.10;0.10;;;21.60;99.90;;;;;;5044983;28;20115;-87
2023/07/29 06:07:01;;;;;;;0.10;0.10;;;21.70;99.90;;;;;;5062351;28;20024;-78
2023/07/29 06:09:27;;;;;;;0.10;0.10;;;;;;;;;;5043728;28;20712;-82
2023/07/29 06:11:58;;;;;;;0.03;0.03;;;21.90;99.90;;;;;;5044364;28;20659;-87
2023/07/29 06:14:24;;;;;;;0.08;0.08;;;24.40;99.90;;;;;;5061609;28;20050;-79
2023/07/29 06:16:50;;;;;;;0.35;0.35;;;22.70;99.90;;;;;;5061223;28;20032;-79
2023/07/29 06:19:23;;;;;;;0.73;0.70;;;21.60;99.90;;;;;;5044176;28;20020;-82
2023/07/29 06:21:58;;;;;;;3.83;3.50;;;22.20;99.90;;;;;;5044795;28;20482;-79
2023/07/29 06:24:33;;;;;;;0.63;0.63;;;22.20;99.90;;;;;;5043851;28;20033;-78
2023/07/29 06:26:59;;;;;;;0.10;0.10;;;22.20;99.90;;;;;;5043874;28;20020;-80
2023/07/29 06:29:24;;;;;;;0.10;0.10;;;22.30;99.90;;;;;;5043679;28;20023;-82
2023/07/29 06:32:20;;;;;;;0.70;0.57;;;22.40;99.90;;;;;;5061481;28;20016;-79
2023/07/29 06:34:46;;;;;;;0.40;0.40;;;22.50;99.90;;;;;;5043549;28;20124;-81
2023/07/29 06:37:14;;;;;;;0.98;0.98;;;22.50;99.90;;;;;;5043121;28;20111;-80
2023/07/29 06:39:40;;;;;;;0.10;0.10;;;20.80;99.90;;;;;;5043207;28;20028;-78
2023/07/29 06:42:06;;;;;;;0.17;0.17;;;22.70;99.90;;;;;;5043883;28;20695;-79
2023/07/29 06:44:39;;;;;;;0.10;0.10;;;22.70;99.90;;;;;;5045029;28;20116;-78
2023/07/29 06:47:05;;;;;;;0.10;0.10;;;22.80;99.90;;;;;;5052898;28;20078;-83
2023/07/29 06:49:30;;;;;;;0.28;0.22;;;22.90;99.90;;;;;;5062155;28;20047;-77
2023/07/29 06:51:56;;;;;;;1.33;1.27;;;22.70;99.90;;;;;;5041825;28;20041;-77
2023/07/29 06:54:26;;;;;;;2.05;1.85;;;22.50;99.90;;;;;;5042588;28;20563;-77
2023/07/29 06:57:01;;;;;;;0.10;0.10;;;20.10;99.90;;;;;;5061467;28;20677;-78
2023/07/29 06:59:30;;;;;;;0.10;0.10;;;22.00;99.90;;;;;;5041560;28;20509;-78
2023/07/29 07:02:05;;;;;;;1.33;1.27;;;23.00;99.90;;;;;;5042243;28;20031;-76
2023/07/29 07:04:43;;;;;;;0.10;0.10;;;23.60;99.90;;;;;;5042073;28;20016;-77
2023/07/29 07:07:19;;;;;;;0.10;0.10;;;22.30;99.90;;;;;;5060576;28;20044;-78
2023/07/29 07:09:47;;;;;;;0.10;0.10;;;21.30;99.90;;;;;;5017356;28;20120;-82
2023/07/29 07:12:15;;;;;;;1.55;1.33;;;22.90;99.90;;;;;;5000732;28;20124;-85
2023/07/29 07:14:41;;;;;;;0.75;0.75;;;22.60;99.90;;;;;;5000794;28;20120;-76
2023/07/29 07:17:09;;;;;;;0.28;0.28;;;23.10;99.90;;;;;;5017490;28;20045;-84
2023/07/29 07:19:35;;;;;;;0.10;0.10;;;22.90;99.90;;;;;;5017226;28;20030;-77
2023/07/29 07:22:03;;;;;;;0.20;0.20;;;23.10;99.90;;;;;;5017406;28;20029;-85
2023/07/29 07:24:29;;;;;;;0.95;0.75;;;23.20;99.90;;;;;;5017233;28;20145;-84
2023/07/29 07:26:55;;;;;;;1.55;1.45;;;21.60;99.90;;;;;;5003945;28;20782;-81
2023/07/29 07:29:21;;;;;;;0.17;0.17;;;23.40;99.90;;;;;;5025952;28;20116;-77
2023/07/29 07:31:54;;;;;;;0.55;0.52;;;23.50;99.90;;;;;;5023997;28;20117;-81
2023/07/29 07:34:20;;;;;;;1.00;1.00;;;23.60;99.90;;;;;;5025946;28;20025;-78
2023/07/29 07:36:46;;;;;;;1.27;1.13;;;23.80;99.90;;;;;;5013299;28;20033;-77
2023/07/29 07:39:17;;;;;;;0.20;0.20;;;23.90;99.90;;;;;;5019928;28;20610;-77
2023/07/29 07:41:43;;;;;;;0.38;0.38;;;;;;;;;;5039703;28;20028;-77
2023/07/29 07:44:15;;;;;;;0.30;0.30;;;23.90;99.90;;;;;;5041774;28;20013;-77
2023/07/29 07:46:49;;;;;;;0.10;0.10;;;24.20;99.90;;;;;;5041699;28;20028;-77
2023/07/29 07:49:15;;;;;;;1.35;0.95;;;24.10;99.90;;;;;;5041840;28;20044;-77
2023/07/29 07:51:46;;;;;;;0.10;0.10;;;24.80;99.90;;;;;;5041322;28;20063;-82
2023/07/29 07:54:13;;;;;;;0.40;0.40;;;24.50;99.90;;;;;;5041903;28;20052;-77
2023/07/29 07:56:39;;;;;;;0.10;0.10;;;24.70;99.90;;;;;;5041421;28;20032;-80
2023/07/29 07:59:05;;;;;;;0.10;0.10;;;24.90;99.10;;;;;;5041445;28;20024;-77
2023/07/29 08:01:36;;;;;;;0.68;0.68;;;24.80;98.90;;;;;;5042039;28;20024;-77
2023/07/29 08:04:02;;;;;;;0.30;0.30;;;24.90;98.70;;;;;;5059571;28;20128;-77
2023/07/29 08:06:30;;;;;;;0.30;0.30;;;25.10;98.70;;;;;;5058979;28;20021;-80
2023/07/29 08:08:59;;;;;;;0.10;0.10;;;25.10;97.90;;;;;;5059153;28;20005;-80
2023/07/29 08:11:26;;;;;;;0.10;0.10;;;25.10;97.60;;;;;;5059289;28;20078;-80
2023/07/29 08:13:52;;;;;;;0.10;0.10;;;;;;;;;;5060302;28;20017;-78
2023/07/29 08:16:18;;;;;;;0.30;0.30;;;25.30;97.10;;;;;;5059039;28;20082;-76
2023/07/29 08:18:44;;;;;;;0.30;0.22;;;25.30;96.60;;;;;;5059016;28;20028;-82
2023/07/29 08:21:10;;;;;;;0.00;0.00;;;25.30;96.80;;;;;;5043239;28;20094;-82
2023/07/29 08:23:36;;;;;;;0.00;0.00;;;25.60;96.40;;;;;;5060799;28;20017;-85
2023/07/29 08:26:05;;;;;;;0.10;0.10;;;26.40;97.00;;;;;;5059378;28;20092;-84
2023/07/29 08:28:38;;;;;;;1.20;1.20;;;25.80;96.00;;;;;;5061254;28;20020;-85
2023/07/29 08:31:04;;;;;;;0.57;0.57;;;26.00;96.30;;;;;;5061330;28;20082;-80
2023/07/29 08:33:31;;;;;;;0.98;0.75;;;26.20;95.30;;;;;;5059210;28;20693;-84
2023/07/29 08:35:57;;;;;;;0.00;0.00;;;26.10;94.50;;;;;;5058103;28;20039;-81
2023/07/29 08:38:23;;;;;;;0.20;0.20;;;26.20;94.50;;;;;;5040887;28;20426;-81
2023/07/29 08:41:14;;;;;;;0.35;0.35;;;26.40;93.70;;;;;;5041434;28;20024;-80
2023/07/29 08:43:49;;;;;;;0.00;0.00;;;26.60;92.70;;;;;;5058620;28;20562;-78
2023/07/29 08:46:16;;;;;;;0.38;0.38;;;26.50;92.70;;;;;;5059501;28;20040;-84
2023/07/29 08:48:43;;;;;;;0.00;0.00;;;26.50;92.50;;;;;;5060512;28;20043;-86
2023/07/29 08:51:12;;;;;;;0.10;0.10;;;26.50;92.20;;;;;;5040912;28;20319;-86
2023/07/29 08:53:39;;;;;;;0.13;0.13;;;26.70;92.30;;;;;;5059113;28;20027;-86
2023/07/29 08:56:06;;;;;;;0.10;0.10;;;26.90;92.40;;;;;;5058634;28;20055;-84
2023/07/29 08:58:32;;;;;;;0.00;0.00;;;27.20;92.00;;;;;;5058475;28;20382;-77
2023/07/29 09:00:58;;;;;;;0.38;0.38;;;27.40;91.70;;;;;;5045762;28;20649;-87
2023/07/29 09:03:24;;;;;;;0.00;0.00;;;27.60;90.30;;;;;;5046323;28;20085;-82
2023/07/29 09:05:51;;;;;;;0.10;0.10;;;27.90;90.60;;;;;;5068220;28;20123;-80
2023/07/29 09:08:17;;;;;;;0.45;0.30;;;27.70;89.70;;;;;;5070085;28;20040;-83
2023/07/29 09:10:43;;;;;;;0.20;0.20;;;27.60;88.30;;;;;;5076986;28;20028;-79
2023/07/29 09:13:09;;;;;;;0.65;0.65;;;27.40;89.90;;;;;;5050760;28;20604;-81
2023/07/29 09:15:37;;;;;;;0.00;0.00;;;27.50;88.60;;;;;;5070516;28;20667;-75
2023/07/29 09:18:10;;;;;;;0.10;0.10;;;27.50;88.30;;;;;;5042413;28;20240;-78
2023/07/29 09:20:36;;;;;;;0.10;0.10;;;27.60;88.00;;;;;;5025525;28;20013;-82
2023/07/29 09:23:02;;;;;;;0.43;0.32;;;27.70;88.40;;;;;;5066459;28;20697;-77
2023/07/29 09:25:29;;;;;;;0.10;0.10;;;27.90;88.60;;;;;;5064224;28;20103;-77
2023/07/29 09:28:00;;;;;;;0.00;0.00;;;28.10;87.20;;;;;;5065380;28;20579;-82
2023/07/29 09:30:26;;;;;;;0.10;0.10;;;28.00;87.60;;;;;;5064930;28;20036;-76
2023/07/29 09:32:58;;;;;;;0.00;0.00;;;28.00;87.30;;;;;;5065991;28;20025;-76
2023/07/29 09:35:28;;;;;;;0.40;0.20;;;28.00;87.20;;;;;;5048304;28;20021;-87
2023/07/29 09:37:54;;;;;;;0.00;0.00;;;27.90;87.10;;;;;;5065663;28;20024;-76
2023/07/29 09:40:22;;;;;;;0.00;0.00;;;27.80;86.90;;;;;;5047606;28;20024;-79
2023/07/29 09:42:53;;;;;;;0.00;0.00;;;27.90;85.30;;;;;;5049462;28;20031;-76
2023/07/29 09:45:26;;;;;;;0.90;0.90;;;28.00;86.20;;;;;;5068788;28;20032;-77
2023/07/29 09:47:53;;;;;;;0.10;0.10;;;28.20;86.60;;;;;;5030865;28;20066;-80
2023/07/29 09:50:29;;;;;;;0.47;0.47;;;28.50;86.20;;;;;;5064307;28;20025;-82
2023/07/29 09:52:58;;;;;;;0.00;0.00;;;28.50;84.20;;;;;;5047142;28;20529;-84
2023/07/29 09:55:24;;;;;;;0.50;0.50;;;28.50;84.40;;;;;;5064718;28;20024;-84
2023/07/29 09:57:56;;;;;;;0.00;0.00;;;28.60;84.90;;;;;;5064844;28;20104;-86
2023/07/29 10:00:23;;;;;;;0.40;0.20;;;28.50;85.20;;;;;;5064387;28;20599;-77
2023/07/29 10:02:49;;;;;;;0.10;0.10;;;28.40;85.50;;;;;;5064337;28;20174;-83
2023/07/29 10:05:15;;;;;;;0.10;0.10;;;28.50;85.30;;;;;;5064089;28;20043;-77
2023/07/29 10:07:46;;;;;;;0.45;0.20;;;28.60;85.60;;;;;;5046303;28;20106;-76
2023/07/29 10:10:13;;;;;;;0.00;0.00;;;28.60;83.90;;;;;;5046435;28;20806;-83
2023/07/29 10:12:42;;;;;;;0.10;0.10;;;28.60;82.90;;;;;;5063964;28;20025;-79
2023/07/29 10:15:09;;;;;;;0.43;0.30;;;28.70;84.20;;;;;;5046145;28;20023;-79
2023/07/29 10:17:36;;;;;;;0.50;0.35;;;29.50;83.50;;;;;;5064339;28;20039;-79
2023/07/29 10:20:04;;;;;;;0.10;0.10;;;29.10;82.70;;;;;;5063469;28;20651;-81
2023/07/29 10:22:37;;;;;;;0.00;0.00;;;28.60;82.90;;;;;;5065146;28;20674;-78
2023/07/29 10:25:06;;;;;;;0.20;0.20;;;28.70;82.80;;;;;;5064578;28;20032;-80
2023/07/29 10:27:49;;;;;;;0.13;0.13;;;28.70;82.90;;;;;;5044675;28;20039;-81
2023/07/29 10:30:15;;;;;;;0.00;0.00;;;30.20;84.10;;;;;;5032103;28;20086;-77
2023/07/29 10:32:45;;;;;;;0.00;0.00;;;28.80;82.50;;;;;;5027760;28;20048;-84
2023/07/29 10:35:15;;;;;;;0.05;0.05;;;29.00;83.10;;;;;;5042225;28;20036;-84
2023/07/29 10:37:42;;;;;;;0.10;0.10;;;29.30;82.40;;;;;;5060979;28;20036;-78
2023/07/29 10:40:10;;;;;;;0.00;0.00;;;29.40;82.40;;;;;;5061083;28;20024;-77
2023/07/29 10:42:37;;;;;;;0.10;0.10;;;31.10;82.00;;;;;;5066108;28;20024;-77
2023/07/29 10:45:39;;;;;;;0.03;0.03;;;29.50;81.00;;;;;;5045189;28;20620;-77
2023/07/29 10:48:12;;;;;;;0.00;0.00;;;27.20;79.20;;;;;;5037369;28;20020;-88
2023/07/29 10:50:39;;;;;;;0.10;0.10;;;29.70;80.70;;;;;;5063040;28;20085;-76
2023/07/29 10:53:05;;;;;;;0.10;0.10;;;29.90;80.50;;;;;;5064384;28;20044;-83
2023/07/29 10:55:38;;;;;;;1.10;0.63;;;30.10;79.50;;;;;;5064255;28;20027;-80
2023/07/29 10:58:17;;;;;;;0.38;0.30;;;29.90;79.80;;;;;;5045469;28;20050;-77
2023/07/29 11:00:44;;;;;;;0.45;0.43;;;29.90;79.70;;;;;;5061861;28;20025;-85
2023/07/29 11:03:13;;;;;;;0.00;0.00;;;29.60;79.90;;;;;;5062059;28;20107;-76
2023/07/29 11:05:52;;;;;;;0.00;0.00;;;29.80;80.60;;;;;;5044292;28;20457;-78
2023/07/29 11:08:31;;;;;;;1.02;0.98;;;30.20;80.30;;;;;;5062002;28;20013;-82
2023/07/29 11:11:11;;;;;;;0.15;0.15;;;30.40;80.70;;;;;;5061101;28;20660;-79
2023/07/29 11:13:38;;;;;;;0.63;0.63;;;30.80;79.30;;;;;;5060648;28;20088;-81
2023/07/29 11:16:08;;;;;;;0.15;0.15;;;31.10;78.70;;;;;;5060509;28;20100;-79
2023/07/29 11:18:35;;;;;;;0.10;0.10;;;31.30;77.20;;;;;;5060254;28;20044;-80
2023/07/29 11:21:03;;;;;;;0.10;0.10;;;29.80;75.70;;;;;;5026235;28;20021;-87
2023/07/29 11:23:34;;;;;;;0.47;0.47;;;31.20;76.80;;;;;;5060213;28;20070;-81
2023/07/29 11:26:01;;;;;;;0.55;0.43;;;31.30;77.20;;;;;;5060960;28;20185;-81
2023/07/29 11:28:27;;;;;;;0.43;0.43;;;31.60;77.10;;;;;;5064746;28;20100;-78
2023/07/29 11:30:57;;;;;;;0.10;0.10;;;30.40;75.30;;;;;;5066468;28;20031;-82
2023/07/29 11:33:25;;;;;;;0.52;0.50;;;33.60;77.80;;;;;;5069712;28;20024;-83
2023/07/29 11:35:52;;;;;;;0.35;0.15;;;31.90;75.00;;;;;;5053547;28;20689;-83
2023/07/29 11:38:19;;;;;;;0.10;0.10;;;31.80;74.80;;;;;;5064798;28;20020;-88
2023/07/29 11:41:19;;;;;;;0.55;0.30;;;32.10;74.90;;;;;;5044156;28;20737;-81
2023/07/29 11:43:44;;;;;;;0.10;0.10;;;32.70;74.60;;;;;;4999100;28;20034;-77
2023/07/29 11:46:11;;;;;;;0.38;0.38;;;34.10;74.60;;;;;;4996825;28;20426;-83
2023/07/29 11:48:37;;;;;;;0.10;0.10;;;32.80;72.80;;;;;;4996644;28;20141;-77
2023/07/29 11:51:03;;;;;;;0.28;0.20;;;33.10;73.00;;;;;;4996366;28;20514;-80
2023/07/29 11:53:30;;;;;;;0.20;0.20;;;32.90;72.50;;;;;;4996546;28;20041;-80
2023/07/29 11:55:56;;;;;;;1.98;0.70;;;33.20;72.40;;;;;;4996188;28;20026;-82
2023/07/29 11:58:22;;;;;;;1.58;1.48;;;32.80;72.70;;;;;;4996405;28;20053;-77
2023/07/29 12:00:49;;;;;;;0.10;0.10;;;32.80;73.30;;;;;;4995964;28;20026;-81
2023/07/29 12:03:16;;;;;;;0.10;0.10;;;32.90;74.10;;;;;;4996153;28;20022;-81
2023/07/29 12:05:43;;;;;;;0.47;0.47;;;33.20;73.60;;;;;;4996143;28;20214;-78
2023/07/29 12:08:09;;;;;;;0.10;0.10;;;33.40;72.50;;;;;;4996251;28;20054;-78
2023/07/29 12:10:35;;;;;;;0.10;0.10;;;33.50;72.10;;;;;;4995658;28;20042;-82
2023/07/29 12:13:03;;;;;;;0.20;0.15;;;33.50;73.00;;;;;;4995828;28;20122;-78
2023/07/29 12:15:29;;;;;;;0.57;0.25;;;33.60;72.40;;;;;;4995823;28;20028;-76
2023/07/29 12:17:59;;;;;;;0.13;0.13;;;33.70;72.40;;;;;;4995311;28;20147;-81
2023/07/29 12:20:27;;;;;;;0.10;0.10;;;34.10;72.80;;;;;;5024859;28;20021;-77
2023/07/29 12:22:55;;;;;;;0.10;0.10;;;34.60;70.80;;;;;;5058534;28;20031;-82
2023/07/29 12:25:21;;;;;;;0.10;0.10;;;34.90;70.60;;;;;;5058437;28;20023;-85
2023/07/29 12:27:47;;;;;;;1.75;0.73;;;35.20;70.60;;;;;;5058383;28;20029;-78
2023/07/29 12:30:15;;;;;;;0.32;0.30;;;35.70;68.10;;;;;;5041730;28;20526;-83
2023/07/29 12:32:46;;;;;;;0.38;0.38;;;35.50;68.40;;;;;;5040180;28;20691;-82
2023/07/29 12:35:12;;;;;;;0.40;0.20;;;35.50;68.10;;;;;;5040626;28;20017;-82
2023/07/29 12:37:39;;;;;;;0.20;0.20;;;35.40;67.70;;;;;;5040471;28;20033;-78
2023/07/29 12:40:05;;;;;;;0.10;0.10;;;35.10;67.40;;;;;;5040169;28;20103;-78
2023/07/29 12:42:31;;;;;;;0.50;0.50;;;35.00;67.80;;;;;;5057078;28;20066;-78
2023/07/29 12:44:57;;;;;;;1.23;0.40;;;34.70;68.90;;;;;;5040399;28;20605;-77
2023/07/29 12:47:22;;;;;;;0.30;0.30;;;35.20;69.60;;;;;;5057157;28;20020;-76
2023/07/29 12:49:48;;;;;;;0.43;0.20;;;35.90;69.20;;;;;;5051989;28;20021;-76
2023/07/29 12:52:14;;;;;;;0.30;0.30;;;36.50;66.40;;;;;;5057573;28;20682;-76
2023/07/29 12:54:41;;;;;;;0.52;0.40;;;35.10;65.90;;;;;;5057837;28;20016;-78
2023/07/29 12:57:07;;;;;;;1.75;0.43;;;36.40;66.20;;;;;;5056822;28;20705;-77